sensor_id;sensor_type;location;lat;lon;timestamp;P1;durP1;ratioP1;P2;durP2;ratioP2
42972;SDS011;28610;51.214;6.962;2023-02-16T00:00:50;43.83;;;21.27;;
42972;SDS011;28610;51.214;6.962;2023-02-16T00:03:36;43.57;;;21.30;;
42972;SDS011;28610;51.214;6.962;2023-02-16T00:06:22;39.43;;;21.33;;
42972;SDS011;28610;51.214;6.962;2023-02-16T00:09:07;45.63;;;22.40;;
42972;SDS011;28610;51.214;6.962;2023-02-16T00:11:53;47.13;;;22.80;;
42972;SDS011;28610;51.214;6.962;2023-02-16T00:14:56;48.87;;;23.93;;
42972;SDS011;28610;51.214;6.962;2023-02-16T00:17:43;46.70;;;22.50;;
42972;SDS011;28610;51.214;6.962;2023-02-16T00:20:29;47.80;;;22.50;;
42972;SDS011;28610;51.214;6.962;2023-02-16T00:23:14;44.90;;;22.17;;
42972;SDS011;28610;51.214;6.962;2023-02-16T00:26:00;45.37;;;23.37;;
42972;SDS011;28610;51.214;6.962;2023-02-16T00:28:47;42.43;;;21.57;;
42972;SDS011;28610;51.214;6.962;2023-02-16T00:31:33;42.37;;;21.77;;
42972;SDS011;28610;51.214;6.962;2023-02-16T00:34:23;45.50;;;22.43;;
42972;SDS011;28610;51.214;6.962;2023-02-16T00:37:10;47.40;;;22.07;;
42972;SDS011;28610;51.214;6.962;2023-02-16T00:39:56;44.03;;;22.37;;
42972;SDS011;28610;51.214;6.962;2023-02-16T00:42:43;46.77;;;22.43;;
42972;SDS011;28610;51.214;6.962;2023-02-16T00:45:29;49.87;;;23.93;;
42972;SDS011;28610;51.214;6.962;2023-02-16T00:48:17;48.60;;;22.67;;
42972;SDS011;28610;51.214;6.962;2023-02-16T00:51:04;46.17;;;23.27;;
42972;SDS011;28610;51.214;6.962;2023-02-16T00:53:49;49.33;;;23.57;;
42972;SDS011;28610;51.214;6.962;2023-02-16T00:56:36;44.20;;;22.43;;
42972;SDS011;28610;51.214;6.962;2023-02-16T00:59:22;41.43;;;22.53;;
42972;SDS011;28610;51.214;6.962;2023-02-16T01:02:08;48.03;;;23.20;;
42972;SDS011;28610;51.214;6.962;2023-02-16T01:04:54;46.60;;;23.13;;
42972;SDS011;28610;51.214;6.962;2023-02-16T01:07:41;46.07;;;23.37;;
42972;SDS011;28610;51.214;6.962;2023-02-16T01:10:44;46.63;;;23.37;;
42972;SDS011;28610;51.214;6.962;2023-02-16T01:13:48;48.23;;;22.80;;
42972;SDS011;28610;51.214;6.962;2023-02-16T01:16:36;45.97;;;22.77;;
42972;SDS011;28610;51.214;6.962;2023-02-16T01:19:22;44.77;;;23.10;;
42972;SDS011;28610;51.214;6.962;2023-02-16T01:22:08;47.17;;;23.17;;
42972;SDS011;28610;51.214;6.962;2023-02-16T01:24:55;45.97;;;22.30;;
42972;SDS011;28610;51.214;6.962;2023-02-16T01:27:40;49.50;;;23.97;;
42972;SDS011;28610;51.214;6.962;2023-02-16T01:30:26;45.37;;;23.90;;
42972;SDS011;28610;51.214;6.962;2023-02-16T01:33:12;48.40;;;23.10;;
42972;SDS011;28610;51.214;6.962;2023-02-16T01:35:57;46.33;;;23.67;;
42972;SDS011;28610;51.214;6.962;2023-02-16T01:38:43;50.13;;;23.17;;
42972;SDS011;28610;51.214;6.962;2023-02-16T01:41:36;44.63;;;22.90;;
42972;SDS011;28610;51.214;6.962;2023-02-16T01:44:26;50.17;;;23.13;;
42972;SDS011;28610;51.214;6.962;2023-02-16T01:47:15;47.60;;;23.83;;
42972;SDS011;28610;51.214;6.962;2023-02-16T01:50:11;52.17;;;24.13;;
42972;SDS011;28610;51.214;6.962;2023-02-16T01:52:59;50.70;;;23.07;;
42972;SDS011;28610;51.214;6.962;2023-02-16T01:55:46;46.50;;;23.53;;
42972;SDS011;28610;51.214;6.962;2023-02-16T01:58:35;47.27;;;22.93;;
42972;SDS011;28610;51.214;6.962;2023-02-16T02:04:24;47.37;;;23.20;;
42972;SDS011;28610;51.214;6.962;2023-02-16T02:07:30;47.60;;;23.03;;
42972;SDS011;28610;51.214;6.962;2023-02-16T02:10:20;47.83;;;23.10;;
42972;SDS011;28610;51.214;6.962;2023-02-16T02:13:07;47.03;;;22.70;;
42972;SDS011;28610;51.214;6.962;2023-02-16T02:15:57;46.77;;;23.23;;
42972;SDS011;28610;51.214;6.962;2023-02-16T02:18:43;48.80;;;23.43;;
42972;SDS011;28610;51.214;6.962;2023-02-16T02:21:35;46.23;;;22.73;;
42972;SDS011;28610;51.214;6.962;2023-02-16T02:25:03;46.43;;;23.40;;
42972;SDS011;28610;51.214;6.962;2023-02-16T02:27:55;46.27;;;23.20;;
42972;SDS011;28610;51.214;6.962;2023-02-16T02:30:45;43.97;;;23.30;;
42972;SDS011;28610;51.214;6.962;2023-02-16T02:33:36;44.43;;;22.53;;
42972;SDS011;28610;51.214;6.962;2023-02-16T02:36:26;48.30;;;23.37;;
42972;SDS011;28610;51.214;6.962;2023-02-16T02:39:17;48.20;;;24.00;;
42972;SDS011;28610;51.214;6.962;2023-02-16T02:42:07;49.93;;;23.87;;
42972;SDS011;28610;51.214;6.962;2023-02-16T02:44:56;49.53;;;23.20;;
42972;SDS011;28610;51.214;6.962;2023-02-16T02:47:43;47.13;;;23.57;;
42972;SDS011;28610;51.214;6.962;2023-02-16T02:50:40;48.53;;;24.23;;
42972;SDS011;28610;51.214;6.962;2023-02-16T02:53:50;42.03;;;22.07;;
42972;SDS011;28610;51.214;6.962;2023-02-16T02:56:57;54.33;;;23.83;;
42972;SDS011;28610;51.214;6.962;2023-02-16T03:00:04;46.50;;;23.77;;
42972;SDS011;28610;51.214;6.962;2023-02-16T03:03:10;48.00;;;23.57;;
42972;SDS011;28610;51.214;6.962;2023-02-16T03:05:58;47.60;;;23.70;;
42972;SDS011;28610;51.214;6.962;2023-02-16T03:08:46;47.80;;;24.27;;
42972;SDS011;28610;51.214;6.962;2023-02-16T03:11:32;50.70;;;23.47;;
42972;SDS011;28610;51.214;6.962;2023-02-16T03:14:39;51.07;;;24.37;;
42972;SDS011;28610;51.214;6.962;2023-02-16T03:17:29;51.63;;;24.67;;
42972;SDS011;28610;51.214;6.962;2023-02-16T03:20:35;46.63;;;22.90;;
42972;SDS011;28610;51.214;6.962;2023-02-16T03:23:39;51.43;;;24.93;;
42972;SDS011;28610;51.214;6.962;2023-02-16T03:26:44;45.83;;;23.53;;
42972;SDS011;28610;51.214;6.962;2023-02-16T03:29:48;48.20;;;23.80;;
42972;SDS011;28610;51.214;6.962;2023-02-16T03:32:36;51.30;;;24.50;;
42972;SDS011;28610;51.214;6.962;2023-02-16T03:35:22;47.23;;;24.17;;
42972;SDS011;28610;51.214;6.962;2023-02-16T03:38:08;51.83;;;24.37;;
42972;SDS011;28610;51.214;6.962;2023-02-16T03:40:54;50.03;;;24.07;;
42972;SDS011;28610;51.214;6.962;2023-02-16T03:43:39;52.43;;;23.43;;
42972;SDS011;28610;51.214;6.962;2023-02-16T03:46:25;45.17;;;22.67;;
42972;SDS011;28610;51.214;6.962;2023-02-16T03:49:12;48.47;;;23.33;;
42972;SDS011;28610;51.214;6.962;2023-02-16T03:51:57;49.80;;;23.37;;
42972;SDS011;28610;51.214;6.962;2023-02-16T03:54:43;48.10;;;23.97;;
42972;SDS011;28610;51.214;6.962;2023-02-16T03:57:28;45.40;;;22.77;;
42972;SDS011;28610;51.214;6.962;2023-02-16T04:00:14;46.37;;;23.13;;
42972;SDS011;28610;51.214;6.962;2023-02-16T04:03:00;45.10;;;22.90;;
42972;SDS011;28610;51.214;6.962;2023-02-16T04:05:47;50.07;;;24.37;;
42972;SDS011;28610;51.214;6.962;2023-02-16T04:08:32;51.47;;;23.33;;
42972;SDS011;28610;51.214;6.962;2023-02-16T04:11:18;49.30;;;23.37;;
42972;SDS011;28610;51.214;6.962;2023-02-16T04:14:21;49.30;;;24.37;;
42972;SDS011;28610;51.214;6.962;2023-02-16T04:17:07;48.40;;;23.60;;
42972;SDS011;28610;51.214;6.962;2023-02-16T04:19:52;52.70;;;24.17;;
42972;SDS011;28610;51.214;6.962;2023-02-16T04:22:40;47.00;;;23.27;;
42972;SDS011;28610;51.214;6.962;2023-02-16T04:25:26;47.00;;;23.70;;
42972;SDS011;28610;51.214;6.962;2023-02-16T04:28:11;49.53;;;24.53;;
42972;SDS011;28610;51.214;6.962;2023-02-16T04:30:57;48.93;;;24.00;;
42972;SDS011;28610;51.214;6.962;2023-02-16T04:33:42;49.63;;;24.07;;
42972;SDS011;28610;51.214;6.962;2023-02-16T04:36:28;50.70;;;24.37;;
42972;SDS011;28610;51.214;6.962;2023-02-16T04:39:15;45.60;;;23.70;;
42972;SDS011;28610;51.214;6.962;2023-02-16T04:42:01;49.70;;;23.70;;
42972;SDS011;28610;51.214;6.962;2023-02-16T04:44:46;55.13;;;25.43;;
42972;SDS011;28610;51.214;6.962;2023-02-16T04:47:32;46.20;;;23.60;;
42972;SDS011;28610;51.214;6.962;2023-02-16T04:50:17;51.77;;;24.20;;
42972;SDS011;28610;51.214;6.962;2023-02-16T04:53:03;51.23;;;24.73;;
42972;SDS011;28610;51.214;6.962;2023-02-16T04:55:50;46.27;;;23.20;;
42972;SDS011;28610;51.214;6.962;2023-02-16T04:58:35;51.67;;;25.97;;
42972;SDS011;28610;51.214;6.962;2023-02-16T05:01:22;49.27;;;24.33;;
42972;SDS011;28610;51.214;6.962;2023-02-16T05:04:07;47.53;;;24.07;;
42972;SDS011;28610;51.214;6.962;2023-02-16T05:06:53;48.07;;;24.13;;
42972;SDS011;28610;51.214;6.962;2023-02-16T05:09:39;49.63;;;24.83;;
42972;SDS011;28610;51.214;6.962;2023-02-16T05:12:25;49.67;;;24.07;;
42972;SDS011;28610;51.214;6.962;2023-02-16T05:15:29;51.77;;;24.27;;
42972;SDS011;28610;51.214;6.962;2023-02-16T05:18:14;51.03;;;24.40;;
42972;SDS011;28610;51.214;6.962;2023-02-16T05:21:00;55.37;;;24.60;;
42972;SDS011;28610;51.214;6.962;2023-02-16T05:24:05;50.90;;;24.83;;
42972;SDS011;28610;51.214;6.962;2023-02-16T05:26:52;53.43;;;25.77;;
42972;SDS011;28610;51.214;6.962;2023-02-16T05:29:38;46.60;;;23.93;;
42972;SDS011;28610;51.214;6.962;2023-02-16T05:32:24;46.87;;;23.90;;
42972;SDS011;28610;51.214;6.962;2023-02-16T05:35:10;52.37;;;24.90;;
42972;SDS011;28610;51.214;6.962;2023-02-16T05:37:56;52.57;;;25.00;;
42972;SDS011;28610;51.214;6.962;2023-02-16T05:40:41;51.67;;;24.73;;
42972;SDS011;28610;51.214;6.962;2023-02-16T05:43:27;50.10;;;25.17;;
42972;SDS011;28610;51.214;6.962;2023-02-16T05:46:14;53.43;;;25.17;;
42972;SDS011;28610;51.214;6.962;2023-02-16T05:48:59;54.60;;;25.60;;
42972;SDS011;28610;51.214;6.962;2023-02-16T05:51:45;51.50;;;23.40;;
42972;SDS011;28610;51.214;6.962;2023-02-16T05:54:31;54.57;;;25.20;;
42972;SDS011;28610;51.214;6.962;2023-02-16T05:57:17;53.10;;;25.20;;
42972;SDS011;28610;51.214;6.962;2023-02-16T06:00:03;51.67;;;24.67;;
42972;SDS011;28610;51.214;6.962;2023-02-16T06:02:50;53.97;;;25.53;;
42972;SDS011;28610;51.214;6.962;2023-02-16T06:05:36;49.47;;;24.33;;
42972;SDS011;28610;51.214;6.962;2023-02-16T06:08:22;51.70;;;25.23;;
42972;SDS011;28610;51.214;6.962;2023-02-16T06:11:08;52.77;;;25.73;;
42972;SDS011;28610;51.214;6.962;2023-02-16T06:14:15;51.73;;;25.40;;
42972;SDS011;28610;51.214;6.962;2023-02-16T06:17:01;51.10;;;24.13;;
42972;SDS011;28610;51.214;6.962;2023-02-16T06:19:48;52.90;;;24.07;;
42972;SDS011;28610;51.214;6.962;2023-02-16T06:22:34;52.77;;;23.80;;
42972;SDS011;28610;51.214;6.962;2023-02-16T06:25:19;46.63;;;24.60;;
42972;SDS011;28610;51.214;6.962;2023-02-16T06:28:04;47.60;;;23.37;;
42972;SDS011;28610;51.214;6.962;2023-02-16T06:30:50;52.13;;;23.10;;
42972;SDS011;28610;51.214;6.962;2023-02-16T06:33:36;52.13;;;24.53;;
42972;SDS011;28610;51.214;6.962;2023-02-16T06:36:23;52.23;;;24.70;;
42972;SDS011;28610;51.214;6.962;2023-02-16T06:39:08;52.93;;;24.80;;
42972;SDS011;28610;51.214;6.962;2023-02-16T06:41:54;50.40;;;24.47;;
42972;SDS011;28610;51.214;6.962;2023-02-16T06:44:40;48.20;;;24.17;;
42972;SDS011;28610;51.214;6.962;2023-02-16T06:47:26;51.00;;;24.23;;
42972;SDS011;28610;51.214;6.962;2023-02-16T06:50:12;47.53;;;23.57;;
42972;SDS011;28610;51.214;6.962;2023-02-16T06:52:59;55.80;;;24.13;;
42972;SDS011;28610;51.214;6.962;2023-02-16T06:55:44;50.57;;;24.13;;
42972;SDS011;28610;51.214;6.962;2023-02-16T06:58:31;46.03;;;22.37;;
42972;SDS011;28610;51.214;6.962;2023-02-16T07:01:16;48.60;;;24.27;;
42972;SDS011;28610;51.214;6.962;2023-02-16T07:04:05;52.50;;;24.20;;
42972;SDS011;28610;51.214;6.962;2023-02-16T07:06:50;49.33;;;23.93;;
42972;SDS011;28610;51.214;6.962;2023-02-16T07:09:37;47.13;;;23.40;;
42972;SDS011;28610;51.214;6.962;2023-02-16T07:12:23;46.93;;;25.07;;
42972;SDS011;28610;51.214;6.962;2023-02-16T07:15:08;45.23;;;24.87;;
42972;SDS011;28610;51.214;6.962;2023-02-16T07:17:54;50.10;;;24.80;;
42972;SDS011;28610;51.214;6.962;2023-02-16T07:20:40;49.10;;;23.80;;
42972;SDS011;28610;51.214;6.962;2023-02-16T07:23:27;49.07;;;24.03;;
42972;SDS011;28610;51.214;6.962;2023-02-16T07:26:15;53.60;;;25.27;;
42972;SDS011;28610;51.214;6.962;2023-02-16T07:29:00;45.40;;;23.40;;
42972;SDS011;28610;51.214;6.962;2023-02-16T07:31:46;46.67;;;23.07;;
42972;SDS011;28610;51.214;6.962;2023-02-16T07:34:31;52.03;;;24.63;;
42972;SDS011;28610;51.214;6.962;2023-02-16T07:37:17;49.17;;;23.83;;
42972;SDS011;28610;51.214;6.962;2023-02-16T07:40:03;46.30;;;23.60;;
42972;SDS011;28610;51.214;6.962;2023-02-16T07:42:50;49.03;;;23.80;;
42972;SDS011;28610;51.214;6.962;2023-02-16T07:45:36;50.40;;;24.47;;
42972;SDS011;28610;51.214;6.962;2023-02-16T07:48:21;51.30;;;24.13;;
42972;SDS011;28610;51.214;6.962;2023-02-16T07:51:07;47.67;;;23.37;;
42972;SDS011;28610;51.214;6.962;2023-02-16T07:53:53;49.80;;;23.77;;
42972;SDS011;28610;51.214;6.962;2023-02-16T07:56:38;47.73;;;23.77;;
42972;SDS011;28610;51.214;6.962;2023-02-16T07:59:25;53.80;;;24.07;;
42972;SDS011;28610;51.214;6.962;2023-02-16T08:02:14;47.67;;;22.83;;
42972;SDS011;28610;51.214;6.962;2023-02-16T08:05:00;45.10;;;24.23;;
42972;SDS011;28610;51.214;6.962;2023-02-16T08:07:46;48.00;;;23.67;;
42972;SDS011;28610;51.214;6.962;2023-02-16T08:10:31;51.47;;;24.40;;
42972;SDS011;28610;51.214;6.962;2023-02-16T08:13:16;44.87;;;23.10;;
42972;SDS011;28610;51.214;6.962;2023-02-16T08:16:03;45.70;;;24.20;;
42972;SDS011;28610;51.214;6.962;2023-02-16T08:18:51;48.83;;;24.27;;
42972;SDS011;28610;51.214;6.962;2023-02-16T08:21:37;48.30;;;24.53;;
42972;SDS011;28610;51.214;6.962;2023-02-16T08:24:24;49.70;;;23.83;;
42972;SDS011;28610;51.214;6.962;2023-02-16T08:27:11;47.17;;;23.63;;
42972;SDS011;28610;51.214;6.962;2023-02-16T08:29:56;49.30;;;23.60;;
42972;SDS011;28610;51.214;6.962;2023-02-16T08:32:43;47.57;;;22.87;;
42972;SDS011;28610;51.214;6.962;2023-02-16T08:35:28;47.57;;;22.67;;
42972;SDS011;28610;51.214;6.962;2023-02-16T08:38:15;48.07;;;23.73;;
42972;SDS011;28610;51.214;6.962;2023-02-16T08:41:00;44.27;;;22.30;;
42972;SDS011;28610;51.214;6.962;2023-02-16T08:43:46;48.23;;;23.43;;
42972;SDS011;28610;51.214;6.962;2023-02-16T08:46:32;46.13;;;23.03;;
42972;SDS011;28610;51.214;6.962;2023-02-16T08:49:20;43.17;;;23.17;;
42972;SDS011;28610;51.214;6.962;2023-02-16T08:52:06;42.63;;;22.93;;
42972;SDS011;28610;51.214;6.962;2023-02-16T08:54:52;47.47;;;22.80;;
42972;SDS011;28610;51.214;6.962;2023-02-16T08:57:37;46.97;;;23.10;;
42972;SDS011;28610;51.214;6.962;2023-02-16T09:00:23;48.57;;;23.73;;
42972;SDS011;28610;51.214;6.962;2023-02-16T09:03:18;45.90;;;22.10;;
42972;SDS011;28610;51.214;6.962;2023-02-16T09:06:06;48.60;;;24.23;;
42972;SDS011;28610;51.214;6.962;2023-02-16T09:08:51;48.63;;;22.90;;
42972;SDS011;28610;51.214;6.962;2023-02-16T09:11:37;46.20;;;22.83;;
42972;SDS011;28610;51.214;6.962;2023-02-16T09:14:23;51.03;;;23.70;;
42972;SDS011;28610;51.214;6.962;2023-02-16T09:17:10;43.30;;;23.27;;
42972;SDS011;28610;51.214;6.962;2023-02-16T09:19:56;48.43;;;23.33;;
42972;SDS011;28610;51.214;6.962;2023-02-16T09:22:43;45.10;;;22.57;;
42972;SDS011;28610;51.214;6.962;2023-02-16T09:25:29;43.10;;;23.13;;
42972;SDS011;28610;51.214;6.962;2023-02-16T09:28:16;45.00;;;22.47;;
42972;SDS011;28610;51.214;6.962;2023-02-16T09:31:07;43.60;;;22.23;;
42972;SDS011;28610;51.214;6.962;2023-02-16T09:33:53;43.90;;;23.00;;
42972;SDS011;28610;51.214;6.962;2023-02-16T09:36:39;44.17;;;22.83;;
42972;SDS011;28610;51.214;6.962;2023-02-16T09:39:26;43.80;;;22.83;;
42972;SDS011;28610;51.214;6.962;2023-02-16T09:42:15;43.67;;;22.70;;
42972;SDS011;28610;51.214;6.962;2023-02-16T09:45:04;46.87;;;22.27;;
42972;SDS011;28610;51.214;6.962;2023-02-16T09:47:52;40.67;;;22.10;;
42972;SDS011;28610;51.214;6.962;2023-02-16T09:50:38;41.27;;;21.53;;
42972;SDS011;28610;51.214;6.962;2023-02-16T09:53:27;39.67;;;22.17;;
42972;SDS011;28610;51.214;6.962;2023-02-16T09:56:18;41.33;;;23.07;;
42972;SDS011;28610;51.214;6.962;2023-02-16T09:59:08;41.97;;;21.37;;
42972;SDS011;28610;51.214;6.962;2023-02-16T10:01:56;45.43;;;23.10;;
42972;SDS011;28610;51.214;6.962;2023-02-16T10:04:46;43.13;;;22.93;;
42972;SDS011;28610;51.214;6.962;2023-02-16T10:07:37;44.30;;;23.53;;
42972;SDS011;28610;51.214;6.962;2023-02-16T10:10:27;46.47;;;22.70;;
42972;SDS011;28610;51.214;6.962;2023-02-16T10:13:18;43.73;;;22.43;;
42972;SDS011;28610;51.214;6.962;2023-02-16T10:16:04;44.73;;;23.37;;
42972;SDS011;28610;51.214;6.962;2023-02-16T10:18:51;43.93;;;22.43;;
42972;SDS011;28610;51.214;6.962;2023-02-16T10:21:38;40.87;;;22.43;;
42972;SDS011;28610;51.214;6.962;2023-02-16T10:24:27;44.63;;;22.67;;
42972;SDS011;28610;51.214;6.962;2023-02-16T10:27:14;47.67;;;23.93;;
42972;SDS011;28610;51.214;6.962;2023-02-16T10:30:05;43.37;;;23.53;;
42972;SDS011;28610;51.214;6.962;2023-02-16T10:32:54;47.80;;;23.67;;
42972;SDS011;28610;51.214;6.962;2023-02-16T10:35:42;45.40;;;22.87;;
42972;SDS011;28610;51.214;6.962;2023-02-16T10:38:30;47.60;;;23.27;;
42972;SDS011;28610;51.214;6.962;2023-02-16T10:41:23;48.50;;;23.47;;
42972;SDS011;28610;51.214;6.962;2023-02-16T10:44:12;45.53;;;23.67;;
42972;SDS011;28610;51.214;6.962;2023-02-16T10:47:01;48.57;;;24.63;;
42972;SDS011;28610;51.214;6.962;2023-02-16T10:49:47;46.67;;;23.70;;
42972;SDS011;28610;51.214;6.962;2023-02-16T10:52:34;47.73;;;23.03;;
42972;SDS011;28610;51.214;6.962;2023-02-16T10:55:21;44.77;;;23.73;;
42972;SDS011;28610;51.214;6.962;2023-02-16T10:58:12;43.90;;;23.63;;
42972;SDS011;28610;51.214;6.962;2023-02-16T11:01:00;49.83;;;23.80;;
42972;SDS011;28610;51.214;6.962;2023-02-16T11:03:48;44.60;;;23.37;;
42972;SDS011;28610;51.214;6.962;2023-02-16T11:06:35;42.50;;;23.07;;
42972;SDS011;28610;51.214;6.962;2023-02-16T11:09:21;42.33;;;23.77;;
42972;SDS011;28610;51.214;6.962;2023-02-16T11:12:13;47.73;;;23.90;;
42972;SDS011;28610;51.214;6.962;2023-02-16T11:14:59;48.73;;;23.80;;
42972;SDS011;28610;51.214;6.962;2023-02-16T11:17:47;48.13;;;24.43;;
42972;SDS011;28610;51.214;6.962;2023-02-16T11:20:51;46.00;;;23.83;;
42972;SDS011;28610;51.214;6.962;2023-02-16T11:23:37;45.90;;;24.97;;
42972;SDS011;28610;51.214;6.962;2023-02-16T11:26:24;45.23;;;23.80;;
42972;SDS011;28610;51.214;6.962;2023-02-16T11:29:16;43.40;;;22.87;;
42972;SDS011;28610;51.214;6.962;2023-02-16T11:32:06;47.10;;;24.73;;
42972;SDS011;28610;51.214;6.962;2023-02-16T11:34:52;42.33;;;23.33;;
42972;SDS011;28610;51.214;6.962;2023-02-16T11:37:39;46.07;;;24.43;;
42972;SDS011;28610;51.214;6.962;2023-02-16T11:40:26;44.50;;;23.67;;
42972;SDS011;28610;51.214;6.962;2023-02-16T11:43:14;45.80;;;23.87;;
42972;SDS011;28610;51.214;6.962;2023-02-16T11:46:02;43.00;;;23.00;;
42972;SDS011;28610;51.214;6.962;2023-02-16T11:48:49;49.90;;;25.70;;
42972;SDS011;28610;51.214;6.962;2023-02-16T11:51:34;43.73;;;24.30;;
42972;SDS011;28610;51.214;6.962;2023-02-16T11:54:21;45.57;;;23.33;;
42972;SDS011;28610;51.214;6.962;2023-02-16T11:57:10;43.00;;;23.47;;
42972;SDS011;28610;51.214;6.962;2023-02-16T11:59:57;44.20;;;23.53;;
42972;SDS011;28610;51.214;6.962;2023-02-16T12:02:48;44.53;;;23.37;;
42972;SDS011;28610;51.214;6.962;2023-02-16T12:05:41;44.83;;;24.07;;
42972;SDS011;28610;51.214;6.962;2023-02-16T12:08:34;43.17;;;24.07;;
42972;SDS011;28610;51.214;6.962;2023-02-16T12:11:27;42.17;;;22.73;;
42972;SDS011;28610;51.214;6.962;2023-02-16T12:17:20;43.37;;;24.03;;
42972;SDS011;28610;51.214;6.962;2023-02-16T12:20:21;46.77;;;24.70;;
42972;SDS011;28610;51.214;6.962;2023-02-16T12:23:16;42.60;;;23.33;;
42972;SDS011;28610;51.214;6.962;2023-02-16T12:26:09;46.70;;;23.63;;
42972;SDS011;28610;51.214;6.962;2023-02-16T12:29:04;44.00;;;24.63;;
42972;SDS011;28610;51.214;6.962;2023-02-16T12:32:03;45.33;;;23.73;;
42972;SDS011;28610;51.214;6.962;2023-02-16T12:34:53;47.77;;;24.30;;
42972;SDS011;28610;51.214;6.962;2023-02-16T12:37:43;44.27;;;23.60;;
42972;SDS011;28610;51.214;6.962;2023-02-16T12:40:31;44.80;;;24.60;;
42972;SDS011;28610;51.214;6.962;2023-02-16T12:43:28;42.47;;;24.27;;
42972;SDS011;28610;51.214;6.962;2023-02-16T12:46:17;45.73;;;24.47;;
42972;SDS011;28610;51.214;6.962;2023-02-16T12:49:06;43.97;;;23.90;;
42972;SDS011;28610;51.214;6.962;2023-02-16T12:51:57;41.53;;;22.87;;
42972;SDS011;28610;51.214;6.962;2023-02-16T12:54:48;46.37;;;25.07;;
42972;SDS011;28610;51.214;6.962;2023-02-16T12:57:35;49.80;;;25.47;;
42972;SDS011;28610;51.214;6.962;2023-02-16T13:00:29;48.20;;;25.33;;
42972;SDS011;28610;51.214;6.962;2023-02-16T13:03:28;48.50;;;25.73;;
42972;SDS011;28610;51.214;6.962;2023-02-16T13:06:18;47.97;;;25.93;;
42972;SDS011;28610;51.214;6.962;2023-02-16T13:09:09;47.40;;;25.80;;
42972;SDS011;28610;51.214;6.962;2023-02-16T13:12:00;51.63;;;26.03;;
42972;SDS011;28610;51.214;6.962;2023-02-16T13:14:52;46.43;;;24.33;;
42972;SDS011;28610;51.214;6.962;2023-02-16T13:17:41;45.50;;;25.37;;
42972;SDS011;28610;51.214;6.962;2023-02-16T13:20:30;47.93;;;25.23;;
42972;SDS011;28610;51.214;6.962;2023-02-16T13:23:28;45.50;;;24.40;;
42972;SDS011;28610;51.214;6.962;2023-02-16T13:26:17;41.43;;;24.00;;
42972;SDS011;28610;51.214;6.962;2023-02-16T13:29:22;46.87;;;24.80;;
42972;SDS011;28610;51.214;6.962;2023-02-16T13:32:18;44.17;;;24.67;;
42972;SDS011;28610;51.214;6.962;2023-02-16T13:35:11;47.13;;;24.87;;
42972;SDS011;28610;51.214;6.962;2023-02-16T13:38:13;45.47;;;25.23;;
42972;SDS011;28610;51.214;6.962;2023-02-16T13:41:20;46.53;;;24.33;;
42972;SDS011;28610;51.214;6.962;2023-02-16T13:44:12;45.50;;;24.53;;
42972;SDS011;28610;51.214;6.962;2023-02-16T13:47:00;47.30;;;24.80;;
42972;SDS011;28610;51.214;6.962;2023-02-16T13:49:47;42.40;;;24.53;;
42972;SDS011;28610;51.214;6.962;2023-02-16T13:52:34;46.07;;;23.83;;
42972;SDS011;28610;51.214;6.962;2023-02-16T13:55:22;48.27;;;24.50;;
42972;SDS011;28610;51.214;6.962;2023-02-16T14:07:20;49.30;;;23.47;;
42972;SDS011;28610;51.214;6.962;2023-02-16T14:10:07;44.50;;;23.67;;
42972;SDS011;28610;51.214;6.962;2023-02-16T14:12:58;47.27;;;23.27;;
42972;SDS011;28610;51.214;6.962;2023-02-16T14:15:56;44.80;;;23.53;;
42972;SDS011;28610;51.214;6.962;2023-02-16T14:18:44;43.83;;;23.50;;
42972;SDS011;28610;51.214;6.962;2023-02-16T14:21:31;42.17;;;22.63;;
42972;SDS011;28610;51.214;6.962;2023-02-16T14:24:28;46.07;;;24.93;;
42972;SDS011;28610;51.214;6.962;2023-02-16T14:27:20;47.47;;;24.00;;
42972;SDS011;28610;51.214;6.962;2023-02-16T14:30:24;43.67;;;22.70;;
42972;SDS011;28610;51.214;6.962;2023-02-16T14:33:15;40.80;;;23.13;;
42972;SDS011;28610;51.214;6.962;2023-02-16T14:36:05;41.77;;;22.80;;
42972;SDS011;28610;51.214;6.962;2023-02-16T14:38:53;43.37;;;23.47;;
42972;SDS011;28610;51.214;6.962;2023-02-16T14:41:40;43.27;;;22.57;;
42972;SDS011;28610;51.214;6.962;2023-02-16T14:44:30;39.00;;;22.10;;
42972;SDS011;28610;51.214;6.962;2023-02-16T14:47:22;42.03;;;22.27;;
42972;SDS011;28610;51.214;6.962;2023-02-16T14:50:15;39.33;;;22.00;;
42972;SDS011;28610;51.214;6.962;2023-02-16T14:53:16;41.07;;;23.17;;
42972;SDS011;28610;51.214;6.962;2023-02-16T14:56:09;41.43;;;21.70;;
42972;SDS011;28610;51.214;6.962;2023-02-16T14:59:00;40.63;;;20.93;;
42972;SDS011;28610;51.214;6.962;2023-02-16T15:01:46;43.47;;;22.60;;
42972;SDS011;28610;51.214;6.962;2023-02-16T15:04:33;49.07;;;22.30;;
42972;SDS011;28610;51.214;6.962;2023-02-16T15:07:21;41.37;;;21.93;;
42972;SDS011;28610;51.214;6.962;2023-02-16T15:10:10;37.63;;;21.27;;
42972;SDS011;28610;51.214;6.962;2023-02-16T15:12:57;40.27;;;21.53;;
42972;SDS011;28610;51.214;6.962;2023-02-16T15:15:43;43.50;;;22.03;;
42972;SDS011;28610;51.214;6.962;2023-02-16T15:18:31;40.37;;;21.83;;
42972;SDS011;28610;51.214;6.962;2023-02-16T15:21:20;46.33;;;23.90;;
42972;SDS011;28610;51.214;6.962;2023-02-16T15:24:16;48.23;;;22.87;;
42972;SDS011;28610;51.214;6.962;2023-02-16T15:27:04;37.27;;;20.90;;
42972;SDS011;28610;51.214;6.962;2023-02-16T15:30:00;36.53;;;20.97;;
42972;SDS011;28610;51.214;6.962;2023-02-16T15:32:48;40.90;;;22.20;;
42972;SDS011;28610;51.214;6.962;2023-02-16T15:35:35;39.17;;;19.73;;
42972;SDS011;28610;51.214;6.962;2023-02-16T15:38:24;41.77;;;20.83;;
42972;SDS011;28610;51.214;6.962;2023-02-16T15:41:13;40.63;;;21.53;;
42972;SDS011;28610;51.214;6.962;2023-02-16T15:43:59;36.60;;;20.30;;
42972;SDS011;28610;51.214;6.962;2023-02-16T15:46:46;38.50;;;20.37;;
42972;SDS011;28610;51.214;6.962;2023-02-16T15:49:31;38.30;;;21.37;;
42972;SDS011;28610;51.214;6.962;2023-02-16T15:52:18;39.03;;;21.20;;
42972;SDS011;28610;51.214;6.962;2023-02-16T15:55:06;40.60;;;22.07;;
42972;SDS011;28610;51.214;6.962;2023-02-16T15:57:52;38.83;;;21.60;;
42972;SDS011;28610;51.214;6.962;2023-02-16T16:00:40;40.27;;;21.27;;
42972;SDS011;28610;51.214;6.962;2023-02-16T16:03:27;40.70;;;21.60;;
42972;SDS011;28610;51.214;6.962;2023-02-16T16:06:12;35.77;;;20.13;;
42972;SDS011;28610;51.214;6.962;2023-02-16T16:08:58;35.77;;;20.20;;
42972;SDS011;28610;51.214;6.962;2023-02-16T16:11:45;40.13;;;20.80;;
42972;SDS011;28610;51.214;6.962;2023-02-16T16:14:32;36.47;;;21.50;;
42972;SDS011;28610;51.214;6.962;2023-02-16T16:17:18;36.77;;;20.33;;
42972;SDS011;28610;51.214;6.962;2023-02-16T16:20:17;36.90;;;20.20;;
42972;SDS011;28610;51.214;6.962;2023-02-16T16:23:03;45.27;;;21.33;;
42972;SDS011;28610;51.214;6.962;2023-02-16T16:25:49;41.10;;;21.57;;
42972;SDS011;28610;51.214;6.962;2023-02-16T16:28:36;43.87;;;20.93;;
42972;SDS011;28610;51.214;6.962;2023-02-16T16:31:32;37.83;;;20.50;;
42972;SDS011;28610;51.214;6.962;2023-02-16T16:34:29;38.20;;;20.23;;
42972;SDS011;28610;51.214;6.962;2023-02-16T16:37:23;36.43;;;19.90;;
42972;SDS011;28610;51.214;6.962;2023-02-16T16:40:18;36.67;;;21.37;;
42972;SDS011;28610;51.214;6.962;2023-02-16T16:43:06;41.93;;;20.73;;